Time;durP1;ratioP1;P1;durP2;ratioP2;P2;SDS_P1;SDS_P2;PMS_P1;PMS_P2;Temp;Humidity;BMP_temperature;BMP_pressure;BME280_temperature;BME280_humidity;BME280_pressure;Samples;Min_cycle;Max_cycle;Signal;HPM_P1;HPM_P2
2023/02/20 00:01:15;;;;;;;3.30;3.00;;;8.50;99.90;;;;;;5012950;28;20400;-76
2023/02/20 00:03:40;;;;;;;5.40;2.58;;;8.50;99.90;;;;;;5012605;28;20412;-76
2023/02/20 00:06:06;;;;;;;5.00;2.50;;;8.60;99.90;;;;;;5008734;28;20395;-75
2023/02/20 00:08:32;;;;;;;3.92;2.83;;;8.50;99.90;;;;;;4993170;28;20387;-76
2023/02/20 00:10:57;;;;;;;4.20;2.20;;;8.50;99.90;;;;;;4993165;28;20445;-76
2023/02/20 00:13:23;;;;;;;5.23;2.37;;;8.50;99.90;;;;;;5001366;28;20401;-76
2023/02/20 00:15:48;;;;;;;3.40;2.10;;;8.10;99.90;;;;;;5011913;28;20495;-76
2023/02/20 00:18:14;;;;;;;2.80;2.30;;;8.50;99.90;;;;;;5011453;28;20389;-77
2023/02/20 00:20:39;;;;;;;2.70;2.20;;;8.40;99.90;;;;;;5012740;28;20384;-77
2023/02/20 00:23:05;;;;;;;2.38;2.00;;;8.20;99.90;;;;;;5013402;28;20419;-77
2023/02/20 00:25:30;;;;;;;3.00;2.47;;;8.20;99.90;;;;;;5013003;28;20416;-77
2023/02/20 00:27:56;;;;;;;2.60;2.37;;;8.30;99.90;;;;;;5012499;28;20406;-77
2023/02/20 00:30:23;;;;;;;4.97;2.60;;;7.70;99.90;;;;;;5012178;28;20397;-77
2023/02/20 00:32:50;;;;;;;5.00;2.70;;;7.90;99.90;;;;;;5012370;28;20704;-76
2023/02/20 00:35:17;;;;;;;4.68;2.50;;;7.80;99.90;;;;;;5011567;28;20389;-76
2023/02/20 00:37:43;;;;;;;4.28;2.50;;;8.60;99.90;;;;;;5012040;28;20517;-76
2023/02/20 00:40:10;;;;;;;5.22;2.70;;;8.10;99.90;;;;;;5012031;28;20408;-76
2023/02/20 00:42:35;;;;;;;4.10;2.53;;;7.90;99.90;;;;;;5012102;28;20419;-76
2023/02/20 00:45:01;;;;;;;3.87;2.53;;;7.80;99.90;;;;;;5011956;28;20837;-77
2023/02/20 00:47:26;;;;;;;4.60;2.60;;;7.90;99.90;;;;;;5011868;28;20391;-77
2023/02/20 00:49:52;;;;;;;3.80;2.50;;;;;;;;;;5012024;28;20396;-76
2023/02/20 00:52:18;;;;;;;3.90;2.88;;;8.00;99.90;;;;;;5012014;28;20481;-76
2023/02/20 00:54:43;;;;;;;4.40;3.10;;;7.70;99.90;;;;;;5011822;28;20828;-76
2023/02/20 00:57:09;;;;;;;6.10;2.90;;;7.70;99.90;;;;;;5011273;28;20949;-76
2023/02/20 00:59:34;;;;;;;5.50;2.95;;;7.80;99.90;;;;;;5011753;28;20483;-76
2023/02/20 01:02:02;;;;;;;4.97;2.83;;;7.60;99.90;;;;;;5011144;28;21273;-76
2023/02/20 01:04:27;;;;;;;3.27;2.40;;;7.30;99.90;;;;;;5011624;28;20385;-76
2023/02/20 01:06:53;;;;;;;3.50;3.20;;;7.40;99.90;;;;;;5003552;28;20502;-77
2023/02/20 01:09:18;;;;;;;3.33;2.83;;;7.30;99.90;;;;;;5011673;28;20767;-76
2023/02/20 01:11:44;;;;;;;5.70;2.97;;;7.40;99.90;;;;;;5011658;28;20392;-76
2023/02/20 01:14:12;;;;;;;3.60;2.70;;;7.60;99.90;;;;;;5011619;28;20392;-76
2023/02/20 01:16:44;;;;;;;2.88;2.40;;;7.60;99.90;;;;;;5010844;28;20401;-76
2023/02/20 01:19:10;;;;;;;3.30;2.70;;;7.70;99.90;;;;;;5011433;28;20393;-76
2023/02/20 01:21:35;;;;;;;3.13;2.50;;;7.40;99.90;;;;;;5010133;28;20463;-76
2023/02/20 01:24:01;;;;;;;3.57;2.97;;;7.50;99.90;;;;;;5011527;28;20411;-76
2023/02/20 01:26:26;;;;;;;5.47;2.80;;;7.60;99.90;;;;;;5010162;28;20416;-76
2023/02/20 01:28:52;;;;;;;4.90;2.60;;;7.40;99.90;;;;;;5010959;28;20389;-76
2023/02/20 01:31:17;;;;;;;4.10;2.60;;;7.20;99.90;;;;;;5011244;28;20759;-76
2023/02/20 01:33:43;;;;;;;3.85;2.80;;;7.10;99.90;;;;;;5009879;28;20399;-76
2023/02/20 01:36:10;;;;;;;4.97;3.00;;;7.30;99.90;;;;;;5010865;28;20767;-76
2023/02/20 01:38:35;;;;;;;4.78;3.20;;;7.40;99.90;;;;;;5009848;28;20403;-76
2023/02/20 01:41:01;;;;;;;4.10;3.30;;;7.80;99.90;;;;;;5011242;28;20731;-76
2023/02/20 01:43:27;;;;;;;4.50;2.70;;;7.20;99.90;;;;;;5010993;28;20858;-76
2023/02/20 01:45:52;;;;;;;3.67;2.80;;;7.30;99.90;;;;;;5010439;28;20413;-76
2023/02/20 01:48:21;;;;;;;4.10;2.47;;;7.40;99.90;;;;;;5010861;28;20922;-76
2023/02/20 01:50:48;;;;;;;3.83;3.20;;;7.40;99.90;;;;;;5010988;28;20851;-76
2023/02/20 01:53:19;;;;;;;2.97;2.53;;;7.20;99.90;;;;;;5010931;28;20403;-76
2023/02/20 01:55:58;;;;;;;4.68;2.67;;;7.20;99.90;;;;;;5010518;28;20766;-76
2023/02/20 01:58:35;;;;;;;4.53;2.65;;;7.10;99.90;;;;;;5010862;28;20407;-77
2023/02/20 02:01:03;;;;;;;5.95;2.88;;;7.00;99.90;;;;;;5011080;28;20392;-77
2023/02/20 02:03:34;;;;;;;4.20;2.90;;;7.60;99.90;;;;;;5010563;28;20404;-77
2023/02/20 02:06:03;;;;;;;3.38;2.50;;;6.90;99.90;;;;;;5010013;28;20407;-76
2023/02/20 02:08:29;;;;;;;3.50;2.80;;;6.80;99.90;;;;;;5010436;28;20823;-76
2023/02/20 02:11:04;;;;;;;3.50;2.90;;;6.90;99.90;;;;;;4994872;28;20417;-77
2023/02/20 02:13:31;;;;;;;3.73;2.70;;;6.80;99.90;;;;;;5002098;28;20429;-76
2023/02/20 02:16:10;;;;;;;4.00;2.47;;;6.80;99.90;;;;;;5009905;28;20475;-76
2023/02/20 02:18:56;;;;;;;2.97;2.67;;;6.60;99.90;;;;;;5009140;28;20404;-76
2023/02/20 02:21:34;;;;;;;4.28;2.75;;;6.70;99.90;;;;;;5010587;28;20391;-76
2023/02/20 02:24:00;;;;;;;3.92;2.60;;;6.60;99.90;;;;;;5008646;28;20413;-76
2023/02/20 02:27:00;;;;;;;4.68;2.70;;;6.70;99.90;;;;;;5007370;28;20758;-76
2023/02/20 02:29:39;;;;;;;5.45;2.97;;;6.50;99.90;;;;;;5008868;28;20393;-76
2023/02/20 02:32:24;;;;;;;3.65;2.58;;;6.00;99.90;;;;;;5010423;28;20393;-76
2023/02/20 02:35:02;;;;;;;4.20;2.90;;;6.60;99.90;;;;;;5010566;28;20384;-76
2023/02/20 02:37:54;;;;;;;2.85;2.40;;;6.60;99.90;;;;;;5010859;28;20458;-76
2023/02/20 02:40:37;;;;;;;6.00;2.90;;;6.40;99.90;;;;;;5013831;28;20470;-76
2023/02/20 02:43:17;;;;;;;3.50;2.50;;;6.40;99.90;;;;;;5014328;28;20408;-76
2023/02/20 02:45:53;;;;;;;3.40;2.50;;;6.50;99.90;;;;;;5013999;28;20443;-77
2023/02/20 02:48:35;;;;;;;3.30;2.30;;;6.30;99.90;;;;;;5000946;28;20491;-76
2023/02/20 02:51:30;;;;;;;4.72;2.63;;;6.00;99.90;;;;;;5014338;28;20900;-77
2023/02/20 02:54:11;;;;;;;4.38;2.85;;;6.10;99.90;;;;;;5013614;28;20444;-76
2023/02/20 02:56:39;;;;;;;3.17;2.35;;;6.30;99.90;;;;;;5012615;28;20404;-77
2023/02/20 02:59:08;;;;;;;4.82;2.70;;;6.30;99.90;;;;;;5013785;28;20429;-77
2023/02/20 03:01:38;;;;;;;3.17;2.70;;;6.30;99.90;;;;;;5014122;28;20400;-77
2023/02/20 03:04:08;;;;;;;5.10;2.60;;;6.10;99.90;;;;;;5014000;28;20416;-77
2023/02/20 03:06:38;;;;;;;3.72;2.70;;;5.90;99.90;;;;;;5013359;28;21038;-76
2023/02/20 03:09:31;;;;;;;3.10;2.50;;;5.90;99.90;;;;;;5005727;28;20463;-76
2023/02/20 03:11:59;;;;;;;5.13;2.50;;;6.10;99.90;;;;;;5011591;28;20428;-76
2023/02/20 03:17:57;;;;;;;3.15;2.70;;;6.10;99.90;;;;;;5012199;28;20407;-76
2023/02/20 03:20:23;;;;;;;3.63;2.60;;;6.10;99.90;;;;;;5013628;28;20485;-76
2023/02/20 03:22:54;;;;;;;3.50;2.50;;;5.90;99.90;;;;;;5013511;28;20408;-76
2023/02/20 03:25:27;;;;;;;3.80;2.55;;;5.90;99.90;;;;;;5013552;28;20471;-76
2023/02/20 03:28:02;;;;;;;4.03;2.50;;;5.90;99.90;;;;;;5013599;28;20843;-76
2023/02/20 03:30:42;;;;;;;3.97;2.50;;;5.80;99.90;;;;;;5013492;28;20463;-76
2023/02/20 03:44:39;;;;;;;3.42;2.60;;;5.50;99.90;;;;;;5013802;28;20404;-77
2023/02/20 03:47:08;;;;;;;3.27;2.27;;;5.70;99.90;;;;;;5012560;28;20402;-77
2023/02/20 03:49:41;;;;;;;5.47;2.63;;;5.60;99.90;;;;;;5012543;28;20388;-76
2023/02/20 03:52:07;;;;;;;4.90;2.58;;;5.70;99.90;;;;;;5013317;28;20435;-76
2023/02/20 03:54:35;;;;;;;3.50;2.53;;;5.50;99.90;;;;;;5012936;28;20995;-76
2023/02/20 03:57:11;;;;;;;3.90;2.60;;;5.30;99.90;;;;;;5012661;28;20913;-76
2023/02/20 03:59:49;;;;;;;5.00;2.30;;;5.30;99.90;;;;;;5011685;28;20414;-76
2023/02/20 04:02:21;;;;;;;5.10;2.80;;;5.20;99.90;;;;;;5013046;28;20745;-76
2023/02/20 04:04:51;;;;;;;3.97;2.35;;;5.30;99.90;;;;;;5012468;28;20814;-76
2023/02/20 04:07:26;;;;;;;2.92;2.40;;;5.30;99.90;;;;;;4999082;28;20461;-76
2023/02/20 04:09:56;;;;;;;3.53;2.72;;;5.30;99.90;;;;;;5004176;28;20398;-76
2023/02/20 04:12:35;;;;;;;3.97;2.80;;;5.10;99.90;;;;;;4993035;28;20488;-76
2023/02/20 04:15:03;;;;;;;3.60;2.50;;;5.30;99.90;;;;;;4992844;28;20943;-76
2023/02/20 04:17:42;;;;;;;4.45;2.50;;;5.30;99.90;;;;;;5007743;28;20398;-76
2023/02/20 04:20:09;;;;;;;3.60;2.50;;;5.10;99.90;;;;;;5009789;28;20389;-76
2023/02/20 04:22:40;;;;;;;3.33;2.40;;;5.20;99.90;;;;;;5012437;28;20400;-76
2023/02/20 04:25:34;;;;;;;5.57;2.90;;;5.30;99.90;;;;;;5012550;28;20392;-77
2023/02/20 04:28:01;;;;;;;4.05;2.75;;;5.30;99.90;;;;;;5011657;28;20393;-77
2023/02/20 04:30:27;;;;;;;4.00;2.50;;;5.30;99.90;;;;;;5011108;28;20578;-76
2023/02/20 04:32:52;;;;;;;2.50;2.30;;;5.30;99.90;;;;;;5012291;28;20961;-76
2023/02/20 04:35:19;;;;;;;2.93;2.70;;;5.10;99.90;;;;;;5011107;28;20751;-76
2023/02/20 04:37:45;;;;;;;4.40;2.73;;;5.40;99.90;;;;;;5012215;28;20548;-76
2023/02/20 04:40:12;;;;;;;4.25;2.83;;;5.20;99.90;;;;;;5012537;28;20471;-76
2023/02/20 04:42:37;;;;;;;3.03;2.63;;;5.10;99.90;;;;;;5012541;28;20428;-76
2023/02/20 04:45:03;;;;;;;3.30;2.80;;;5.00;99.90;;;;;;5012324;28;20521;-76
2023/02/20 04:47:29;;;;;;;4.73;2.70;;;5.10;99.90;;;;;;5011817;28;20401;-76
2023/02/20 04:49:54;;;;;;;3.03;2.73;;;5.00;99.90;;;;;;5012094;28;20408;-76
2023/02/20 04:52:20;;;;;;;3.37;2.23;;;5.00;99.90;;;;;;5012396;28;20412;-76
2023/02/20 04:54:46;;;;;;;2.63;2.23;;;4.90;99.90;;;;;;5012247;28;20755;-76
2023/02/20 04:57:11;;;;;;;5.22;2.53;;;5.00;99.90;;;;;;5011996;28;20392;-76
2023/02/20 04:59:37;;;;;;;4.50;2.80;;;4.90;99.90;;;;;;5011890;28;20389;-76
2023/02/20 05:02:02;;;;;;;4.23;2.70;;;4.70;99.90;;;;;;5011082;28;20459;-76
2023/02/20 05:04:28;;;;;;;3.77;2.60;;;4.80;99.90;;;;;;5012102;28;20395;-76
2023/02/20 05:06:55;;;;;;;3.80;2.40;;;4.80;99.90;;;;;;5010742;28;20393;-77
2023/02/20 05:09:22;;;;;;;3.80;2.97;;;4.60;99.90;;;;;;5011018;28;20424;-76
2023/02/20 05:11:47;;;;;;;5.55;3.28;;;4.90;99.90;;;;;;5012610;28;20401;-77
2023/02/20 05:14:14;;;;;;;3.83;2.70;;;4.50;99.90;;;;;;5010986;28;20409;-76
2023/02/20 05:16:40;;;;;;;5.10;2.90;;;5.00;99.90;;;;;;5033164;23;20483;-75
2023/02/20 05:19:07;;;;;;;4.65;2.65;;;4.70;99.90;;;;;;5014729;28;20477;-75
2023/02/20 05:24:17;;;;;;;3.70;2.60;;;;;;;;;;5013493;28;20401;-75
2023/02/20 05:26:43;;;;;;;4.30;3.40;;;;;;;;;;5013678;28;20388;-75
2023/02/20 05:29:11;;;;;;;3.25;2.60;;;4.50;99.90;;;;;;5013085;28;21170;-75
2023/02/20 05:31:37;;;;;;;5.30;2.80;;;;;;;;;;5012917;28;20396;-75
2023/02/20 05:34:02;;;;;;;5.77;2.80;;;4.50;99.90;;;;;;5013407;28;20413;-75
2023/02/20 05:36:28;;;;;;;5.73;2.77;;;4.40;99.90;;;;;;5013708;28;20389;-75
2023/02/20 05:38:53;;;;;;;7.80;3.00;;;4.00;99.90;;;;;;5013995;28;20392;-75
2023/02/20 05:41:19;;;;;;;3.10;2.70;;;4.40;99.90;;;;;;5013963;28;20393;-75
2023/02/20 05:43:45;;;;;;;3.50;2.87;;;4.10;99.90;;;;;;5013943;28;20396;-75
2023/02/20 05:46:11;;;;;;;5.63;3.38;;;4.30;99.90;;;;;;5012706;28;20830;-76
2023/02/20 05:48:37;;;;;;;5.32;3.13;;;3.90;99.90;;;;;;5013691;28;20384;-76
2023/02/20 05:51:02;;;;;;;4.00;2.40;;;4.10;99.90;;;;;;5013578;28;20404;-75
2023/02/20 05:53:29;;;;;;;3.53;2.73;;;4.30;99.90;;;;;;5014217;28;20412;-75
2023/02/20 05:55:55;;;;;;;4.68;3.00;;;3.90;99.90;;;;;;5013067;28;20413;-75
2023/02/20 05:58:20;;;;;;;5.47;3.15;;;4.30;99.90;;;;;;5013406;28;20392;-75
2023/02/20 06:00:46;;;;;;;3.90;2.80;;;3.80;99.90;;;;;;5013295;28;20385;-75
2023/02/20 06:03:14;;;;;;;3.72;2.80;;;4.20;99.90;;;;;;5012791;28;20405;-75
2023/02/20 06:05:40;;;;;;;6.50;3.20;;;;;;;;;;5012837;28;20859;-75
2023/02/20 06:08:06;;;;;;;3.67;2.80;;;4.00;99.90;;;;;;5013275;28;20455;-75
2023/02/20 06:10:32;;;;;;;4.07;2.63;;;;;;;;;;5013327;28;20439;-75
2023/02/20 06:12:58;;;;;;;5.72;2.80;;;3.70;99.90;;;;;;5013137;28;20499;-76
2023/02/20 06:15:24;;;;;;;3.10;2.72;;;;;;;;;;5013061;28;20432;-75
2023/02/20 06:17:49;;;;;;;5.45;2.33;;;3.90;99.90;;;;;;5012109;28;20827;-75
2023/02/20 06:20:15;;;;;;;4.53;2.60;;;3.90;99.90;;;;;;5013674;28;20395;-75
2023/02/20 06:22:41;;;;;;;5.63;2.90;;;3.90;99.90;;;;;;5012786;28;20411;-75
2023/02/20 06:25:07;;;;;;;3.63;2.85;;;3.80;99.90;;;;;;5012937;28;20405;-75
2023/02/20 06:27:32;;;;;;;4.93;3.15;;;3.70;99.90;;;;;;5012175;28;20385;-75
2023/02/20 06:29:58;;;;;;;3.80;3.10;;;3.80;99.90;;;;;;5012314;28;20419;-75
2023/02/20 06:32:23;;;;;;;4.87;2.73;;;3.90;99.90;;;;;;5012209;28;20413;-75
2023/02/20 06:34:49;;;;;;;3.20;2.90;;;3.60;99.90;;;;;;5013050;28;20393;-75
2023/02/20 06:37:15;;;;;;;3.70;2.83;;;3.90;99.90;;;;;;4997812;28;20415;-75
2023/02/20 06:39:44;;;;;;;5.40;3.40;;;3.80;99.90;;;;;;4992753;28;20386;-75
2023/02/20 06:42:10;;;;;;;3.55;3.25;;;4.00;99.90;;;;;;5009785;28;20428;-75
2023/02/20 06:44:36;;;;;;;4.40;2.77;;;3.80;99.90;;;;;;5012946;28;20759;-76
2023/02/20 06:47:01;;;;;;;5.63;2.80;;;3.80;99.90;;;;;;5012928;28;20400;-75
2023/02/20 06:49:27;;;;;;;4.55;2.40;;;3.90;99.90;;;;;;5012952;28;20475;-75
2023/02/20 06:51:53;;;;;;;4.10;3.00;;;3.80;99.90;;;;;;5013866;28;20914;-75
2023/02/20 06:54:21;;;;;;;6.30;3.10;;;3.60;99.90;;;;;;5015615;28;20912;-75
2023/02/20 06:56:47;;;;;;;5.22;2.95;;;3.80;99.90;;;;;;5012715;28;20392;-75
2023/02/20 06:59:13;;;;;;;3.33;2.70;;;3.80;99.90;;;;;;5012620;28;20424;-76
2023/02/20 07:01:41;;;;;;;3.80;2.70;;;3.80;99.90;;;;;;5012998;28;20385;-76
2023/02/20 07:04:18;;;;;;;3.20;2.63;;;3.90;99.90;;;;;;5013116;28;20421;-75
2023/02/20 07:06:43;;;;;;;3.70;3.10;;;3.80;99.90;;;;;;5003450;28;20460;-75
2023/02/20 07:09:09;;;;;;;5.70;3.00;;;3.70;99.90;;;;;;5009711;28;20396;-75
2023/02/20 07:11:35;;;;;;;4.27;2.80;;;3.90;99.90;;;;;;5012312;28;20415;-75
2023/02/20 07:14:00;;;;;;;4.70;3.10;;;3.90;99.90;;;;;;5013566;28;20748;-76
2023/02/20 07:16:26;;;;;;;4.77;3.20;;;4.00;99.90;;;;;;5014509;28;20424;-75
2023/02/20 07:18:51;;;;;;;4.97;2.70;;;3.70;99.90;;;;;;5014904;28;20762;-76
2023/02/20 07:21:17;;;;;;;3.53;2.90;;;;;;;;;;5015100;28;20403;-76
2023/02/20 07:23:44;;;;;;;5.00;3.00;;;4.30;99.90;;;;;;5014872;28;20384;-75
2023/02/20 07:26:27;;;;;;;5.60;3.10;;;4.20;99.90;;;;;;5016758;28;20401;-76
2023/02/20 07:28:54;;;;;;;5.25;3.05;;;4.00;99.90;;;;;;5017567;28;20389;-76
2023/02/20 07:31:20;;;;;;;5.18;3.30;;;4.20;99.90;;;;;;5017137;28;20401;-76
2023/02/20 07:33:45;;;;;;;5.20;3.30;;;4.30;99.90;;;;;;5016530;28;20417;-75
2023/02/20 07:36:12;;;;;;;5.30;3.25;;;4.60;99.90;;;;;;5015519;28;20400;-76
2023/02/20 07:38:38;;;;;;;4.90;3.20;;;4.60;99.90;;;;;;5015845;28;20396;-76
2023/02/20 07:41:04;;;;;;;4.32;3.10;;;4.70;99.90;;;;;;5015665;28;20381;-75
2023/02/20 07:43:30;;;;;;;5.30;2.70;;;4.80;99.90;;;;;;5015438;28;20497;-75
2023/02/20 07:45:56;;;;;;;3.40;3.10;;;5.00;99.90;;;;;;5013208;28;20893;-75
2023/02/20 07:48:21;;;;;;;3.50;2.80;;;5.00;99.90;;;;;;5015257;28;20396;-75
2023/02/20 07:50:47;;;;;;;5.77;2.60;;;4.90;99.90;;;;;;5015680;28;20384;-76
2023/02/20 07:53:18;;;;;;;5.27;3.33;;;5.00;99.90;;;;;;5015436;28;20906;-78
2023/02/20 07:55:43;;;;;;;4.10;3.45;;;5.20;99.90;;;;;;5015248;28;20467;-76
2023/02/20 07:58:09;;;;;;;4.85;3.30;;;5.20;99.90;;;;;;5015171;28;20412;-76
2023/02/20 08:00:34;;;;;;;6.60;3.80;;;5.30;99.90;;;;;;5015329;28;20415;-76
2023/02/20 08:03:00;;;;;;;6.90;3.60;;;5.30;99.90;;;;;;5014893;28;20400;-76
2023/02/20 08:05:26;;;;;;;4.53;3.10;;;5.60;99.90;;;;;;5014350;28;20487;-76
2023/02/20 08:07:52;;;;;;;4.07;3.40;;;5.90;99.90;;;;;;4997037;28;20399;-76
2023/02/20 08:10:23;;;;;;;4.65;4.00;;;5.60;99.90;;;;;;4995323;28;20427;-76
2023/02/20 08:12:49;;;;;;;5.75;3.50;;;5.70;99.90;;;;;;5007409;28;20790;-76
2023/02/20 08:15:17;;;;;;;3.80;3.23;;;5.90;99.90;;;;;;5014625;28;20879;-76
2023/02/20 08:17:43;;;;;;;3.65;3.35;;;6.00;99.90;;;;;;5014533;28;20389;-76
2023/02/20 08:20:09;;;;;;;7.07;3.40;;;5.90;99.90;;;;;;5009992;28;20485;-76
2023/02/20 08:22:35;;;;;;;5.15;3.33;;;6.00;99.90;;;;;;4997897;28;20401;-76
2023/02/20 08:25:02;;;;;;;4.68;3.10;;;6.10;99.90;;;;;;5014100;28;20385;-76
2023/02/20 08:27:28;;;;;;;5.20;3.65;;;6.50;99.90;;;;;;5002003;28;20395;-76
2023/02/20 08:29:54;;;;;;;5.47;3.63;;;6.40;64.30;;;;;;4995231;28;20457;-76
2023/02/20 08:32:20;;;;;;;4.80;3.50;;;;;;;;;;4994794;28;20476;-76
2023/02/20 08:34:45;;;;;;;3.97;3.13;;;6.70;26.60;;;;;;4994829;28;20387;-76
2023/02/20 08:37:11;;;;;;;4.67;2.97;;;6.90;4.70;;;;;;5007571;28;20425;-77
2023/02/20 08:39:36;;;;;;;6.20;3.70;;;6.80;1.00;;;;;;5000724;28;20483;-76
2023/02/20 08:42:02;;;;;;;4.72;3.38;;;7.30;1.00;;;;;;4994912;28;20414;-75
2023/02/20 08:44:28;;;;;;;5.22;3.10;;;7.00;1.00;;;;;;4994894;28;20413;-75
2023/02/20 08:46:53;;;;;;;5.63;3.50;;;7.30;1.00;;;;;;4994273;28;20394;-75
2023/02/20 08:49:20;;;;;;;3.93;2.77;;;7.90;1.00;;;;;;5008396;28;20405;-75
2023/02/20 08:51:47;;;;;;;4.93;3.07;;;7.40;1.00;;;;;;5013633;28;20496;-75
2023/02/20 08:54:14;;;;;;;6.28;3.40;;;7.50;1.00;;;;;;5013634;28;20903;-75
2023/02/20 08:56:41;;;;;;;5.60;2.93;;;7.60;1.00;;;;;;5013393;28;20878;-75
2023/02/20 08:59:07;;;;;;;5.45;3.20;;;7.50;1.00;;;;;;5013723;28;20804;-75
2023/02/20 09:01:32;;;;;;;4.13;2.70;;;7.90;1.00;;;;;;5013907;28;20397;-75
2023/02/20 09:03:59;;;;;;;5.22;2.83;;;7.50;1.00;;;;;;5012373;28;20458;-75
2023/02/20 09:06:25;;;;;;;5.50;2.72;;;8.20;1.00;;;;;;5011828;28;20933;-75
2023/02/20 09:08:52;;;;;;;5.25;2.75;;;7.70;99.90;;;;;;5013629;28;20488;-75
2023/02/20 09:11:17;;;;;;;3.78;2.60;;;8.00;99.90;;;;;;5013803;28;20419;-76
2023/02/20 09:13:45;;;;;;;5.60;2.70;;;8.30;1.00;;;;;;5013505;28;20866;-75
2023/02/20 09:16:15;;;;;;;3.58;3.00;;;8.60;1.00;;;;;;5013033;28;20409;-75
2023/02/20 09:18:42;;;;;;;5.07;2.92;;;7.90;21.80;;;;;;5013778;28;20382;-75
2023/02/20 09:21:09;;;;;;;3.60;2.70;;;8.30;14.20;;;;;;5010845;28;20388;-75
2023/02/20 09:23:35;;;;;;;3.95;2.58;;;8.50;99.90;;;;;;5012356;28;20945;-75
2023/02/20 09:26:01;;;;;;;5.50;2.70;;;9.10;99.90;;;;;;5012430;28;20404;-75
2023/02/20 09:28:26;;;;;;;4.75;2.50;;;8.40;99.90;;;;;;5013197;28;20396;-76
2023/02/20 09:30:54;;;;;;;4.00;2.90;;;9.00;99.90;;;;;;5013099;28;20388;-75
2023/02/20 09:33:20;;;;;;;4.22;2.53;;;9.10;1.00;;;;;;5011854;28;20408;-75
2023/02/20 09:35:48;;;;;;;4.80;2.40;;;9.30;99.90;;;;;;5012859;28;20472;-75
2023/02/20 09:38:14;;;;;;;4.00;2.80;;;9.20;26.20;;;;;;5013029;28;20816;-75
2023/02/20 09:40:49;;;;;;;4.85;3.17;;;9.50;1.00;;;;;;5013065;28;20767;-75
2023/02/20 09:43:29;;;;;;;8.20;3.35;;;9.90;1.00;;;;;;5013181;28;20397;-75
2023/02/20 09:46:18;;;;;;;3.87;2.20;;;10.00;99.90;;;;;;5013034;28;20443;-75
2023/02/20 09:49:16;;;;;;;3.45;2.40;;;10.00;99.90;;;;;;5011812;28;20388;-76
2023/02/20 09:51:52;;;;;;;3.88;2.63;;;10.00;1.00;;;;;;4992134;28;20402;-75
2023/02/20 09:54:35;;;;;;;6.07;2.60;;;9.60;1.00;;;;;;4991763;28;20502;-76
2023/02/20 09:57:14;;;;;;;6.20;2.53;;;10.50;99.90;;;;;;4993733;28;20390;-75
2023/02/20 09:59:45;;;;;;;4.72;2.00;;;10.40;1.00;;;;;;5013886;28;20396;-75
2023/02/20 10:02:11;;;;;;;3.83;2.33;;;;;;;;;;5013073;28;20389;-75
2023/02/20 10:04:41;;;;;;;3.22;2.20;;;10.50;72.10;;;;;;5013322;28;20385;-75
2023/02/20 10:07:28;;;;;;;3.08;2.22;;;10.60;1.00;;;;;;5011693;28;20412;-75
2023/02/20 10:09:55;;;;;;;4.65;2.80;;;10.80;1.00;;;;;;5012971;28;20385;-75
2023/02/20 10:12:40;;;;;;;4.97;2.40;;;11.30;1.00;;;;;;5012746;28;20882;-75
2023/02/20 10:15:31;;;;;;;4.60;2.30;;;10.90;99.90;;;;;;5012443;28;20919;-75
2023/02/20 10:18:02;;;;;;;3.55;2.10;;;10.90;99.90;;;;;;5011004;28;20923;-75
2023/02/20 10:21:05;;;;;;;3.05;2.35;;;11.00;1.00;;;;;;5012981;28;20380;-75
2023/02/20 10:23:51;;;;;;;2.75;2.00;;;10.80;99.90;;;;;;5012650;28;20388;-75
2023/02/20 10:26:31;;;;;;;3.03;2.00;;;11.40;99.90;;;;;;5012392;28;20933;-75
2023/02/20 10:29:12;;;;;;;3.80;2.30;;;11.20;99.90;;;;;;5012125;28;20393;-75
2023/02/20 10:31:44;;;;;;;3.63;2.60;;;10.90;99.90;;;;;;5007987;28;20837;-75
2023/02/20 10:34:17;;;;;;;3.83;2.33;;;10.90;99.90;;;;;;4992788;28;20897;-75
2023/02/20 10:36:48;;;;;;;3.37;2.50;;;11.40;99.90;;;;;;4991312;28;20406;-75
2023/02/20 10:39:17;;;;;;;5.25;3.00;;;11.40;99.90;;;;;;4992899;28;20392;-75
2023/02/20 10:41:59;;;;;;;4.78;3.00;;;11.20;99.90;;;;;;5012440;28;20443;-75
2023/02/20 10:44:35;;;;;;;3.80;2.60;;;11.30;91.70;;;;;;5009893;28;20450;-74
2023/02/20 10:47:21;;;;;;;6.28;2.70;;;11.70;99.90;;;;;;5011338;28;20946;-75
2023/02/20 10:50:01;;;;;;;4.97;3.25;;;11.50;99.90;;;;;;5012071;28;20487;-76
2023/02/20 10:52:41;;;;;;;4.87;2.63;;;11.80;90.00;;;;;;5011635;28;20416;-75
2023/02/20 10:55:24;;;;;;;4.05;2.90;;;11.50;1.00;;;;;;5011339;28;20385;-75
2023/02/20 10:58:03;;;;;;;4.37;3.30;;;12.00;99.90;;;;;;5010963;28;20767;-76
2023/02/20 11:00:46;;;;;;;3.40;2.80;;;11.10;99.90;;;;;;5014716;28;20385;-75
2023/02/20 11:03:21;;;;;;;5.38;2.80;;;12.00;1.00;;;;;;5016040;28;20388;-75
2023/02/20 11:05:52;;;;;;;4.10;3.20;;;12.20;43.20;;;;;;5012604;28;20403;-75
2023/02/20 11:08:20;;;;;;;4.47;3.00;;;12.10;52.20;;;;;;5015634;28;20403;-76
2023/02/20 11:10:47;;;;;;;3.63;2.90;;;12.40;99.90;;;;;;5016755;28;20385;-75
2023/02/20 11:13:19;;;;;;;3.95;2.75;;;12.60;99.90;;;;;;5015341;28;20405;-75
2023/02/20 11:15:46;;;;;;;4.43;2.95;;;;;;;;;;5038440;23;20875;-76
2023/02/20 11:18:35;;;;;;;4.60;2.80;;;12.40;1.00;;;;;;5012664;28;20397;-77
2023/02/20 11:21:00;;;;;;;4.28;2.80;;;12.40;1.00;;;;;;5015658;28;20381;-77
2023/02/20 11:23:39;;;;;;;4.10;3.22;;;12.70;1.00;;;;;;5016296;28;20389;-76
2023/02/20 11:26:19;;;;;;;3.45;2.80;;;13.00;1.00;;;;;;5014855;28;20732;-77
2023/02/20 11:28:58;;;;;;;4.95;2.80;;;13.00;1.00;;;;;;5013732;28;20396;-77
2023/02/20 11:31:24;;;;;;;3.90;2.90;;;13.20;1.00;;;;;;5014032;28;20385;-77
2023/02/20 11:33:49;;;;;;;5.47;3.10;;;14.40;1.00;;;;;;5012624;28;20797;-75
2023/02/20 11:36:19;;;;;;;5.80;2.90;;;14.80;1.00;;;;;;5012235;28;20417;-75
2023/02/20 11:38:46;;;;;;;2.90;2.60;;;15.50;99.90;;;;;;5013389;28;20415;-75
2023/02/20 11:41:35;;;;;;;3.28;2.38;;;15.90;1.00;;;;;;5013807;28;20385;-75
2023/02/20 11:44:18;;;;;;;2.90;2.40;;;16.30;99.90;;;;;;5013710;28;20385;-75
2023/02/20 11:46:46;;;;;;;4.32;2.70;;;16.30;99.90;;;;;;5013467;28;20491;-75
2023/02/20 11:49:25;;;;;;;3.45;2.63;;;16.50;99.90;;;;;;5010792;28;20402;-77
2023/02/20 11:51:50;;;;;;;3.72;2.60;;;16.60;99.90;;;;;;5013545;28;21015;-75
2023/02/20 11:54:22;;;;;;;3.00;2.70;;;16.30;99.90;;;;;;5012160;28;20401;-75
2023/02/20 11:56:57;;;;;;;3.97;2.70;;;16.60;99.90;;;;;;5013321;28;20439;-75
2023/02/20 11:59:29;;;;;;;4.60;2.40;;;18.40;99.90;;;;;;5013491;28;20384;-75
2023/02/20 12:01:54;;;;;;;3.90;2.27;;;17.30;99.90;;;;;;5013096;28;20743;-75
2023/02/20 12:04:23;;;;;;;3.20;2.30;;;16.30;99.90;;;;;;5013333;28;20461;-75
2023/02/20 12:06:48;;;;;;;3.13;2.40;;;17.30;99.90;;;;;;5011362;28;20451;-75
2023/02/20 12:09:17;;;;;;;4.32;3.10;;;17.30;99.90;;;;;;5013260;28;20484;-75
2023/02/20 12:11:44;;;;;;;3.72;2.80;;;17.50;99.90;;;;;;5013062;28;20397;-75
2023/02/20 12:14:12;;;;;;;5.20;2.80;;;18.00;99.90;;;;;;5013008;28;20474;-75
2023/02/20 12:16:59;;;;;;;3.88;2.80;;;17.90;99.90;;;;;;5011312;28;20404;-76
2023/02/20 12:19:43;;;;;;;4.18;2.72;;;17.60;99.90;;;;;;5013293;28;20398;-77
2023/02/20 12:22:32;;;;;;;3.55;2.42;;;18.30;99.90;;;;;;5013295;28;20380;-76
2023/02/20 12:25:29;;;;;;;5.20;2.50;;;18.20;99.90;;;;;;5012990;28;20411;-76
2023/02/20 12:27:57;;;;;;;3.72;2.58;;;18.80;99.90;;;;;;5012679;28;20443;-76
2023/02/20 12:31:04;;;;;;;4.15;2.95;;;18.10;99.90;;;;;;5012889;28;20393;-76
2023/02/20 12:33:47;;;;;;;3.20;2.67;;;18.20;99.90;;;;;;5027859;28;20461;-76
2023/02/20 12:36:31;;;;;;;3.20;2.80;;;18.90;99.90;;;;;;5011355;28;20404;-76
2023/02/20 12:39:23;;;;;;;3.10;2.80;;;18.90;99.90;;;;;;5011285;28;20381;-76
2023/02/20 12:42:05;;;;;;;3.40;2.90;;;19.50;99.90;;;;;;5011283;28;20470;-76
2023/02/20 12:44:41;;;;;;;3.03;2.67;;;17.80;99.90;;;;;;5005288;28;20384;-76
2023/02/20 12:47:30;;;;;;;2.70;2.30;;;18.80;99.90;;;;;;5011848;28;20400;-76
2023/02/20 12:49:58;;;;;;;2.90;2.70;;;19.30;99.90;;;;;;5011043;28;20466;-76
2023/02/20 12:52:53;;;;;;;4.40;3.00;;;19.40;99.90;;;;;;5007737;28;20395;-76
2023/02/20 12:55:45;;;;;;;3.42;2.67;;;19.10;99.90;;;;;;5000813;28;20422;-76
2023/02/20 12:58:39;;;;;;;3.60;2.40;;;19.30;99.90;;;;;;4994075;28;20382;-76
2023/02/20 13:01:10;;;;;;;3.58;2.80;;;18.30;99.90;;;;;;5001026;28;20393;-76
2023/02/20 13:03:44;;;;;;;5.20;3.15;;;18.40;99.90;;;;;;5012206;28;20380;-76
2023/02/20 13:06:16;;;;;;;4.13;2.50;;;19.00;99.90;;;;;;4999467;28;20394;-76
2023/02/20 13:08:58;;;;;;;5.47;3.45;;;18.90;99.90;;;;;;5004200;28;20762;-76
2023/02/20 13:11:29;;;;;;;5.10;2.90;;;18.60;99.90;;;;;;5011958;28;20852;-76
2023/02/20 13:14:13;;;;;;;3.70;2.53;;;18.60;99.90;;;;;;5012147;28;20895;-76
2023/02/20 13:17:14;;;;;;;2.97;2.67;;;18.40;99.90;;;;;;5011646;28;20487;-76
2023/02/20 13:19:48;;;;;;;4.50;2.70;;;17.80;99.90;;;;;;4992955;28;20413;-76
2023/02/20 13:22:15;;;;;;;5.30;3.25;;;17.80;99.90;;;;;;4998013;28;20395;-76
2023/02/20 13:24:40;;;;;;;3.90;2.70;;;18.40;99.90;;;;;;5003932;28;20389;-76
2023/02/20 13:27:08;;;;;;;4.47;3.00;;;18.20;99.90;;;;;;5011130;28;20384;-76
2023/02/20 13:29:55;;;;;;;3.20;2.80;;;19.30;99.90;;;;;;5012066;28;20393;-76
2023/02/20 13:32:27;;;;;;;3.70;3.03;;;19.80;99.90;;;;;;5003542;28;20977;-77
2023/02/20 13:34:55;;;;;;;4.50;3.00;;;20.00;99.90;;;;;;5011905;28;20934;-76